sensor_id;sensor_type;location;lat;lon;timestamp;temperature;humidity
67722;SHT31;58309;45.292;11.820;2023-04-29T00:01:40;12.51;95.01
67722;SHT31;58309;45.292;11.820;2023-04-29T00:04:05;12.46;94.78
67722;SHT31;58309;45.292;11.820;2023-04-29T00:06:31;12.40;94.81
67722;SHT31;58309;45.292;11.820;2023-04-29T00:08:57;12.34;95.09
67722;SHT31;58309;45.292;11.820;2023-04-29T00:11:22;12.35;95.26
67722;SHT31;58309;45.292;11.820;2023-04-29T00:13:48;12.30;95.29
67722;SHT31;58309;45.292;11.820;2023-04-29T00:16:13;12.31;95.66
67722;SHT31;58309;45.292;11.820;2023-04-29T00:18:39;12.31;95.55
67722;SHT31;58309;45.292;11.820;2023-04-29T00:21:05;12.35;96.15
67722;SHT31;58309;45.292;11.820;2023-04-29T00:23:34;12.31;95.51
67722;SHT31;58309;45.292;11.820;2023-04-29T00:25:59;12.24;95.68
67722;SHT31;58309;45.292;11.820;2023-04-29T00:28:25;12.23;95.82
67722;SHT31;58309;45.292;11.820;2023-04-29T00:30:51;12.23;95.81
67722;SHT31;58309;45.292;11.820;2023-04-29T00:33:17;12.21;95.50
67722;SHT31;58309;45.292;11.820;2023-04-29T00:35:43;12.18;95.32
67722;SHT31;58309;45.292;11.820;2023-04-29T00:38:08;12.13;95.46
67722;SHT31;58309;45.292;11.820;2023-04-29T00:40:35;12.16;95.74
67722;SHT31;58309;45.292;11.820;2023-04-29T00:43:00;12.18;95.45
67722;SHT31;58309;45.292;11.820;2023-04-29T00:45:26;12.20;95.96
67722;SHT31;58309;45.292;11.820;2023-04-29T00:47:52;12.23;95.54
67722;SHT31;58309;45.292;11.820;2023-04-29T00:50:17;12.27;95.34
67722;SHT31;58309;45.292;11.820;2023-04-29T00:52:43;12.35;95.25
67722;SHT31;58309;45.292;11.820;2023-04-29T00:55:10;12.38;95.47
67722;SHT31;58309;45.292;11.820;2023-04-29T00:57:37;12.45;95.42
67722;SHT31;58309;45.292;11.820;2023-04-29T01:00:04;12.49;95.54
67722;SHT31;58309;45.292;11.820;2023-04-29T01:02:30;12.61;94.86
67722;SHT31;58309;45.292;11.820;2023-04-29T01:04:56;12.65;94.30
67722;SHT31;58309;45.292;11.820;2023-04-29T01:07:33;12.66;94.96
67722;SHT31;58309;45.292;11.820;2023-04-29T01:12:53;12.71;94.18
67722;SHT31;58309;45.292;11.820;2023-04-29T01:15:32;12.76;94.86
67722;SHT31;58309;45.292;11.820;2023-04-29T01:18:06;12.81;94.27
67722;SHT31;58309;45.292;11.820;2023-04-29T01:20:34;12.83;94.35
67722;SHT31;58309;45.292;11.820;2023-04-29T01:23:02;12.82;94.08
67722;SHT31;58309;45.292;11.820;2023-04-29T01:25:28;12.83;94.29
67722;SHT31;58309;45.292;11.820;2023-04-29T01:39:13;12.97;93.56
67722;SHT31;58309;45.292;11.820;2023-04-29T01:41:44;12.95;93.69
67722;SHT31;58309;45.292;11.820;2023-04-29T01:44:14;12.96;93.71
67722;SHT31;58309;45.292;11.820;2023-04-29T01:46:42;12.93;93.39
67722;SHT31;58309;45.292;11.820;2023-04-29T01:49:08;12.92;93.74
67722;SHT31;58309;45.292;11.820;2023-04-29T01:51:34;12.93;93.88
67722;SHT31;58309;45.292;11.820;2023-04-29T01:53:59;12.97;93.83
67722;SHT31;58309;45.292;11.820;2023-04-29T01:56:25;12.96;93.33
67722;SHT31;58309;45.292;11.820;2023-04-29T01:58:50;12.93;93.57
67722;SHT31;58309;45.292;11.820;2023-04-29T02:01:16;12.96;94.22
67722;SHT31;58309;45.292;11.820;2023-04-29T02:03:41;12.96;93.64
67722;SHT31;58309;45.292;11.820;2023-04-29T02:06:07;12.96;93.47
67722;SHT31;58309;45.292;11.820;2023-04-29T02:08:32;12.97;93.24
67722;SHT31;58309;45.292;11.820;2023-04-29T02:10:58;12.86;93.24
67722;SHT31;58309;45.292;11.820;2023-04-29T02:13:24;12.88;94.20
67722;SHT31;58309;45.292;11.820;2023-04-29T02:15:50;12.89;93.64
67722;SHT31;58309;45.292;11.820;2023-04-29T02:18:16;12.93;93.44
67722;SHT31;58309;45.292;11.820;2023-04-29T02:20:42;12.92;93.58
67722;SHT31;58309;45.292;11.820;2023-04-29T02:23:07;12.92;93.72
67722;SHT31;58309;45.292;11.820;2023-04-29T02:25:33;12.79;93.68
67722;SHT31;58309;45.292;11.820;2023-04-29T02:27:58;12.81;94.12
67722;SHT31;58309;45.292;11.820;2023-04-29T02:30:24;12.88;94.05
67722;SHT31;58309;45.292;11.820;2023-04-29T02:32:50;12.89;93.46
67722;SHT31;58309;45.292;11.820;2023-04-29T02:35:17;12.81;93.16
67722;SHT31;58309;45.292;11.820;2023-04-29T02:37:43;12.85;93.23
67722;SHT31;58309;45.292;11.820;2023-04-29T02:40:09;12.86;93.22
67722;SHT31;58309;45.292;11.820;2023-04-29T02:42:35;12.89;92.93
67722;SHT31;58309;45.292;11.820;2023-04-29T02:45:02;12.91;92.78
67722;SHT31;58309;45.292;11.820;2023-04-29T02:47:28;12.95;92.72
67722;SHT31;58309;45.292;11.820;2023-04-29T02:49:53;12.93;92.73
67722;SHT31;58309;45.292;11.820;2023-04-29T02:52:19;12.88;92.77
67722;SHT31;58309;45.292;11.820;2023-04-29T02:54:44;12.91;92.86
67722;SHT31;58309;45.292;11.820;2023-04-29T02:57:10;12.92;92.96
67722;SHT31;58309;45.292;11.820;2023-04-29T02:59:35;12.95;92.52
67722;SHT31;58309;45.292;11.820;2023-04-29T03:02:01;12.96;92.34
67722;SHT31;58309;45.292;11.820;2023-04-29T03:04:27;13.02;92.78
67722;SHT31;58309;45.292;11.820;2023-04-29T03:06:56;13.03;92.22
67722;SHT31;58309;45.292;11.820;2023-04-29T03:09:22;12.93;92.55
67722;SHT31;58309;45.292;11.820;2023-04-29T03:11:48;13.02;92.72
67722;SHT31;58309;45.292;11.820;2023-04-29T03:14:14;13.02;92.53
67722;SHT31;58309;45.292;11.820;2023-04-29T03:16:39;13.02;92.80
67722;SHT31;58309;45.292;11.820;2023-04-29T03:19:05;13.06;92.56
67722;SHT31;58309;45.292;11.820;2023-04-29T03:21:31;13.12;92.53
67722;SHT31;58309;45.292;11.820;2023-04-29T03:23:57;13.14;92.37
67722;SHT31;58309;45.292;11.820;2023-04-29T03:26:22;13.19;92.51
67722;SHT31;58309;45.292;11.820;2023-04-29T03:28:48;13.17;92.42
67722;SHT31;58309;45.292;11.820;2023-04-29T03:31:14;13.20;92.34
67722;SHT31;58309;45.292;11.820;2023-04-29T03:33:41;13.23;92.23
67722;SHT31;58309;45.292;11.820;2023-04-29T03:36:06;13.26;92.31
67722;SHT31;58309;45.292;11.820;2023-04-29T03:38:33;13.23;92.12
67722;SHT31;58309;45.292;11.820;2023-04-29T03:40:58;13.26;91.94
67722;SHT31;58309;45.292;11.820;2023-04-29T03:43:24;13.24;92.23
67722;SHT31;58309;45.292;11.820;2023-04-29T03:45:49;13.10;92.22
67722;SHT31;58309;45.292;11.820;2023-04-29T03:48:15;13.14;91.58
67722;SHT31;58309;45.292;11.820;2023-04-29T03:50:41;13.07;91.98
67722;SHT31;58309;45.292;11.820;2023-04-29T03:53:06;13.06;92.10
67722;SHT31;58309;45.292;11.820;2023-04-29T03:55:32;13.10;91.33
67722;SHT31;58309;45.292;11.820;2023-04-29T03:57:58;13.14;91.29
67722;SHT31;58309;45.292;11.820;2023-04-29T04:00:23;13.17;91.04
67722;SHT31;58309;45.292;11.820;2023-04-29T04:02:51;13.17;90.98
67722;SHT31;58309;45.292;11.820;2023-04-29T04:05:16;13.19;90.85
67722;SHT31;58309;45.292;11.820;2023-04-29T04:07:45;13.19;90.90
67722;SHT31;58309;45.292;11.820;2023-04-29T04:10:11;13.03;91.39
67722;SHT31;58309;45.292;11.820;2023-04-29T04:12:36;13.07;91.85
67722;SHT31;58309;45.292;11.820;2023-04-29T04:15:02;12.99;91.57
67722;SHT31;58309;45.292;11.820;2023-04-29T04:17:28;13.00;91.89
67722;SHT31;58309;45.292;11.820;2023-04-29T04:19:54;12.96;91.99
67722;SHT31;58309;45.292;11.820;2023-04-29T04:22:20;12.93;92.46
67722;SHT31;58309;45.292;11.820;2023-04-29T04:24:45;12.95;91.87
67722;SHT31;58309;45.292;11.820;2023-04-29T04:27:11;12.97;91.87
67722;SHT31;58309;45.292;11.820;2023-04-29T04:29:37;13.03;91.81
67722;SHT31;58309;45.292;11.820;2023-04-29T04:32:03;13.04;91.39
67722;SHT31;58309;45.292;11.820;2023-04-29T04:34:29;13.02;91.49
67722;SHT31;58309;45.292;11.820;2023-04-29T04:36:55;13.07;91.93
67722;SHT31;58309;45.292;11.820;2023-04-29T04:39:22;13.14;91.53
67722;SHT31;58309;45.292;11.820;2023-04-29T04:41:47;13.13;91.36
67722;SHT31;58309;45.292;11.820;2023-04-29T04:44:13;13.13;91.82
67722;SHT31;58309;45.292;11.820;2023-04-29T04:46:38;13.19;91.48
67722;SHT31;58309;45.292;11.820;2023-04-29T04:49:04;13.22;91.25
67722;SHT31;58309;45.292;11.820;2023-04-29T04:51:30;13.16;90.62
67722;SHT31;58309;45.292;11.820;2023-04-29T04:53:55;13.09;90.99
67722;SHT31;58309;45.292;11.820;2023-04-29T04:56:21;13.14;91.28
67722;SHT31;58309;45.292;11.820;2023-04-29T04:58:47;13.19;91.03
67722;SHT31;58309;45.292;11.820;2023-04-29T05:01:12;13.19;90.98
67722;SHT31;58309;45.292;11.820;2023-04-29T05:03:38;13.24;91.35
67722;SHT31;58309;45.292;11.820;2023-04-29T05:06:03;13.32;90.80
67722;SHT31;58309;45.292;11.820;2023-04-29T05:08:29;13.20;91.74
67722;SHT31;58309;45.292;11.820;2023-04-29T05:10:54;13.14;91.89
67722;SHT31;58309;45.292;11.820;2023-04-29T05:13:20;13.19;92.53
67722;SHT31;58309;45.292;11.820;2023-04-29T05:15:46;13.19;92.55
67722;SHT31;58309;45.292;11.820;2023-04-29T05:18:12;13.23;93.26
67722;SHT31;58309;45.292;11.820;2023-04-29T05:20:37;13.23;92.74
67722;SHT31;58309;45.292;11.820;2023-04-29T05:23:03;13.20;93.00
67722;SHT31;58309;45.292;11.820;2023-04-29T05:25:29;13.14;94.04
67722;SHT31;58309;45.292;11.820;2023-04-29T05:27:54;13.00;94.12
67722;SHT31;58309;45.292;11.820;2023-04-29T05:30:20;12.99;94.63
67722;SHT31;58309;45.292;11.820;2023-04-29T05:32:46;12.97;94.04
67722;SHT31;58309;45.292;11.820;2023-04-29T05:35:13;12.96;94.84
67722;SHT31;58309;45.292;11.820;2023-04-29T05:37:39;13.00;94.54
67722;SHT31;58309;45.292;11.820;2023-04-29T05:40:06;13.04;93.27
67722;SHT31;58309;45.292;11.820;2023-04-29T05:42:32;13.12;93.16
67722;SHT31;58309;45.292;11.820;2023-04-29T05:44:57;13.19;92.48
67722;SHT31;58309;45.292;11.820;2023-04-29T05:47:23;13.24;92.59
67722;SHT31;58309;45.292;11.820;2023-04-29T05:49:48;13.22;92.77
67722;SHT31;58309;45.292;11.820;2023-04-29T05:52:14;13.20;92.26
67722;SHT31;58309;45.292;11.820;2023-04-29T05:54:40;13.27;91.76
67722;SHT31;58309;45.292;11.820;2023-04-29T05:57:08;13.39;91.44
67722;SHT31;58309;45.292;11.820;2023-04-29T05:59:34;13.37;90.23
67722;SHT31;58309;45.292;11.820;2023-04-29T06:01:59;13.37;90.86
67722;SHT31;58309;45.292;11.820;2023-04-29T06:04:25;13.47;90.53
67722;SHT31;58309;45.292;11.820;2023-04-29T06:06:52;13.57;89.85
67722;SHT31;58309;45.292;11.820;2023-04-29T06:09:18;13.68;89.68
67722;SHT31;58309;45.292;11.820;2023-04-29T06:11:48;13.95;89.09
67722;SHT31;58309;45.292;11.820;2023-04-29T06:14:13;14.05;87.43
67722;SHT31;58309;45.292;11.820;2023-04-29T06:16:39;14.15;87.15
67722;SHT31;58309;45.292;11.820;2023-04-29T06:19:05;14.36;87.10
67722;SHT31;58309;45.292;11.820;2023-04-29T06:21:30;14.46;87.00
67722;SHT31;58309;45.292;11.820;2023-04-29T06:23:57;14.49;87.80
67722;SHT31;58309;45.292;11.820;2023-04-29T06:26:23;14.40;86.90
67722;SHT31;58309;45.292;11.820;2023-04-29T06:28:48;14.44;87.72
67722;SHT31;58309;45.292;11.820;2023-04-29T06:31:14;14.33;87.88
67722;SHT31;58309;45.292;11.820;2023-04-29T06:33:40;14.40;87.91
67722;SHT31;58309;45.292;11.820;2023-04-29T06:36:06;14.39;88.95
67722;SHT31;58309;45.292;11.820;2023-04-29T06:38:31;14.43;88.44
67722;SHT31;58309;45.292;11.820;2023-04-29T06:40:57;14.34;88.18
67722;SHT31;58309;45.292;11.820;2023-04-29T06:43:28;14.43;87.80
67722;SHT31;58309;45.292;11.820;2023-04-29T06:45:54;14.49;87.94
67722;SHT31;58309;45.292;11.820;2023-04-29T06:48:20;14.36;88.40
67722;SHT31;58309;45.292;11.820;2023-04-29T06:50:56;14.22;88.57
67722;SHT31;58309;45.292;11.820;2023-04-29T06:53:23;14.37;89.13
67722;SHT31;58309;45.292;11.820;2023-04-29T06:55:49;14.63;88.37
67722;SHT31;58309;45.292;11.820;2023-04-29T06:58:15;14.91;87.84
67722;SHT31;58309;45.292;11.820;2023-04-29T07:00:46;15.05;86.02
67722;SHT31;58309;45.292;11.820;2023-04-29T07:03:13;15.11;86.03
67722;SHT31;58309;45.292;11.820;2023-04-29T07:05:39;14.79;86.99
67722;SHT31;58309;45.292;11.820;2023-04-29T07:08:07;14.91;86.61
67722;SHT31;58309;45.292;11.820;2023-04-29T07:10:33;14.93;85.73
67722;SHT31;58309;45.292;11.820;2023-04-29T07:12:58;15.20;85.03
67722;SHT31;58309;45.292;11.820;2023-04-29T07:15:29;15.42;85.13
67722;SHT31;58309;45.292;11.820;2023-04-29T07:17:55;15.53;84.60
67722;SHT31;58309;45.292;11.820;2023-04-29T07:20:21;15.48;83.11
67722;SHT31;58309;45.292;11.820;2023-04-29T07:22:47;15.34;84.02
67722;SHT31;58309;45.292;11.820;2023-04-29T07:25:12;15.48;83.43
67722;SHT31;58309;45.292;11.820;2023-04-29T07:27:39;15.89;82.69
67722;SHT31;58309;45.292;11.820;2023-04-29T07:30:05;16.14;81.73
67722;SHT31;58309;45.292;11.820;2023-04-29T07:32:31;16.37;81.08
67722;SHT31;58309;45.292;11.820;2023-04-29T07:34:57;16.25;81.74
67722;SHT31;58309;45.292;11.820;2023-04-29T07:37:23;16.31;82.92
67722;SHT31;58309;45.292;11.820;2023-04-29T07:39:49;16.10;82.70
67722;SHT31;58309;45.292;11.820;2023-04-29T07:42:14;16.40;80.81
67722;SHT31;58309;45.292;11.820;2023-04-29T07:44:40;16.34;80.80
67722;SHT31;58309;45.292;11.820;2023-04-29T07:47:06;16.37;79.59
67722;SHT31;58309;45.292;11.820;2023-04-29T07:49:31;16.54;80.12
67722;SHT31;58309;45.292;11.820;2023-04-29T07:51:57;16.88;79.33
67722;SHT31;58309;45.292;11.820;2023-04-29T07:54:22;17.05;78.42
67722;SHT31;58309;45.292;11.820;2023-04-29T07:56:48;17.27;78.45
67722;SHT31;58309;45.292;11.820;2023-04-29T07:59:14;17.08;77.83
67722;SHT31;58309;45.292;11.820;2023-04-29T08:01:40;17.29;78.02
67722;SHT31;58309;45.292;11.820;2023-04-29T08:04:06;17.44;77.87
67722;SHT31;58309;45.292;11.820;2023-04-29T08:06:32;17.54;77.98
67722;SHT31;58309;45.292;11.820;2023-04-29T08:08:58;17.54;77.10
67722;SHT31;58309;45.292;11.820;2023-04-29T08:11:24;17.62;77.79
67722;SHT31;58309;45.292;11.820;2023-04-29T08:13:51;17.59;77.92
67722;SHT31;58309;45.292;11.820;2023-04-29T08:16:17;17.66;77.50
67722;SHT31;58309;45.292;11.820;2023-04-29T08:18:42;17.66;78.14
67722;SHT31;58309;45.292;11.820;2023-04-29T08:21:08;17.69;78.05
67722;SHT31;58309;45.292;11.820;2023-04-29T08:23:39;17.67;78.23
67722;SHT31;58309;45.292;11.820;2023-04-29T08:26:04;17.43;80.73
67722;SHT31;58309;45.292;11.820;2023-04-29T08:28:30;17.62;79.69
67722;SHT31;58309;45.292;11.820;2023-04-29T08:30:56;17.54;79.67
67722;SHT31;58309;45.292;11.820;2023-04-29T08:33:22;17.15;82.14
67722;SHT31;58309;45.292;11.820;2023-04-29T08:35:57;16.92;83.43
67722;SHT31;58309;45.292;11.820;2023-04-29T08:38:26;16.99;82.52
67722;SHT31;58309;45.292;11.820;2023-04-29T08:40:52;17.23;82.44
67722;SHT31;58309;45.292;11.820;2023-04-29T08:43:19;16.98;82.36
67722;SHT31;58309;45.292;11.820;2023-04-29T08:45:47;17.27;81.86
67722;SHT31;58309;45.292;11.820;2023-04-29T08:48:17;17.60;81.96
67722;SHT31;58309;45.292;11.820;2023-04-29T08:50:43;17.95;80.63
67722;SHT31;58309;45.292;11.820;2023-04-29T08:53:11;17.74;80.03
67722;SHT31;58309;45.292;11.820;2023-04-29T08:55:42;18.16;79.34
67722;SHT31;58309;45.292;11.820;2023-04-29T08:58:14;18.55;77.13
67722;SHT31;58309;45.292;11.820;2023-04-29T09:00:44;18.49;76.28
67722;SHT31;58309;45.292;11.820;2023-04-29T09:03:30;18.35;78.03
67722;SHT31;58309;45.292;11.820;2023-04-29T09:05:59;18.46;78.35
67722;SHT31;58309;45.292;11.820;2023-04-29T09:08:25;18.06;79.23
67722;SHT31;58309;45.292;11.820;2023-04-29T09:10:52;18.12;79.49
67722;SHT31;58309;45.292;11.820;2023-04-29T09:13:28;18.42;77.02
67722;SHT31;58309;45.292;11.820;2023-04-29T09:15:54;18.65;76.74
67722;SHT31;58309;45.292;11.820;2023-04-29T09:21:20;19.17;75.80
67722;SHT31;58309;45.292;11.820;2023-04-29T09:23:48;18.77;76.30
67722;SHT31;58309;45.292;11.820;2023-04-29T09:26:14;19.28;73.60
67722;SHT31;58309;45.292;11.820;2023-04-29T09:28:40;19.06;73.31
67722;SHT31;58309;45.292;11.820;2023-04-29T09:31:10;19.02;74.11
67722;SHT31;58309;45.292;11.820;2023-04-29T09:34:02;18.70;73.63
67722;SHT31;58309;45.292;11.820;2023-04-29T09:36:50;18.87;73.70
67722;SHT31;58309;45.292;11.820;2023-04-29T09:39:22;19.13;73.96
67722;SHT31;58309;45.292;11.820;2023-04-29T09:44:30;19.89;71.89
67722;SHT31;58309;45.292;11.820;2023-04-29T09:47:04;20.60;69.02
67722;SHT31;58309;45.292;11.820;2023-04-29T09:52:02;21.92;69.15
67722;SHT31;58309;45.292;11.820;2023-04-29T09:54:30;22.64;65.53
67722;SHT31;58309;45.292;11.820;2023-04-29T09:56:57;22.73;64.56
67722;SHT31;58309;45.292;11.820;2023-04-29T09:59:23;23.30;61.85
67722;SHT31;58309;45.292;11.820;2023-04-29T10:01:54;23.92;60.51
67722;SHT31;58309;45.292;11.820;2023-04-29T10:04:21;24.57;56.08
67722;SHT31;58309;45.292;11.820;2023-04-29T10:06:49;24.66;54.68
67722;SHT31;58309;45.292;11.820;2023-04-29T10:09:16;24.14;55.65
67722;SHT31;58309;45.292;11.820;2023-04-29T10:11:43;23.09;56.37
67722;SHT31;58309;45.292;11.820;2023-04-29T10:14:12;22.42;55.86
67722;SHT31;58309;45.292;11.820;2023-04-29T10:19:11;21.55;58.99
67722;SHT31;58309;45.292;11.820;2023-04-29T10:21:39;21.52;59.76
67722;SHT31;58309;45.292;11.820;2023-04-29T10:24:06;21.52;62.50
67722;SHT31;58309;45.292;11.820;2023-04-29T10:26:33;21.29;59.31
67722;SHT31;58309;45.292;11.820;2023-04-29T10:29:02;21.02;63.13
67722;SHT31;58309;45.292;11.820;2023-04-29T10:31:28;21.01;63.80
67722;SHT31;58309;45.292;11.820;2023-04-29T10:33:57;20.99;65.17
67722;SHT31;58309;45.292;11.820;2023-04-29T10:36:24;20.99;64.44
67722;SHT31;58309;45.292;11.820;2023-04-29T10:39:01;21.24;63.22
67722;SHT31;58309;45.292;11.820;2023-04-29T10:41:43;21.33;61.95
67722;SHT31;58309;45.292;11.820;2023-04-29T10:44:14;21.19;64.24
67722;SHT31;58309;45.292;11.820;2023-04-29T10:46:43;20.78;64.73
67722;SHT31;58309;45.292;11.820;2023-04-29T10:49:12;20.63;67.34
67722;SHT31;58309;45.292;11.820;2023-04-29T10:51:44;21.08;64.61
67722;SHT31;58309;45.292;11.820;2023-04-29T10:54:22;21.43;65.28
67722;SHT31;58309;45.292;11.820;2023-04-29T10:56:53;21.76;63.44
67722;SHT31;58309;45.292;11.820;2023-04-29T11:02:01;22.76;63.49
67722;SHT31;58309;45.292;11.820;2023-04-29T11:04:33;22.92;60.15
67722;SHT31;58309;45.292;11.820;2023-04-29T11:07:05;22.75;62.44
67722;SHT31;58309;45.292;11.820;2023-04-29T11:09:34;23.39;60.86
67722;SHT31;58309;45.292;11.820;2023-04-29T11:12:07;23.95;61.37
67722;SHT31;58309;45.292;11.820;2023-04-29T11:14:48;24.55;56.48
67722;SHT31;58309;45.292;11.820;2023-04-29T11:17:15;24.56;57.25
67722;SHT31;58309;45.292;11.820;2023-04-29T11:19:46;24.21;57.52
67722;SHT31;58309;45.292;11.820;2023-04-29T11:22:24;23.84;57.52
67722;SHT31;58309;45.292;11.820;2023-04-29T11:27:44;23.84;56.64
67722;SHT31;58309;45.292;11.820;2023-04-29T11:30:14;23.73;55.99
67722;SHT31;58309;45.292;11.820;2023-04-29T11:32:45;23.78;57.39
67722;SHT31;58309;45.292;11.820;2023-04-29T11:35:14;23.37;56.83
67722;SHT31;58309;45.292;11.820;2023-04-29T11:37:41;24.06;56.32
67722;SHT31;58309;45.292;11.820;2023-04-29T11:40:12;24.64;54.34
67722;SHT31;58309;45.292;11.820;2023-04-29T11:42:45;24.94;52.51
67722;SHT31;58309;45.292;11.820;2023-04-29T11:45:11;24.52;54.18
67722;SHT31;58309;45.292;11.820;2023-04-29T11:47:36;24.87;54.00
67722;SHT31;58309;45.292;11.820;2023-04-29T11:50:09;24.22;57.87
67722;SHT31;58309;45.292;11.820;2023-04-29T11:52:38;24.43;55.60
67722;SHT31;58309;45.292;11.820;2023-04-29T11:55:10;23.65;56.80
67722;SHT31;58309;45.292;11.820;2023-04-29T11:57:39;22.73;59.10
67722;SHT31;58309;45.292;11.820;2023-04-29T12:00:11;23.30;59.82
67722;SHT31;58309;45.292;11.820;2023-04-29T12:02:37;23.75;60.21
67722;SHT31;58309;45.292;11.820;2023-04-29T12:05:06;23.46;56.19
67722;SHT31;58309;45.292;11.820;2023-04-29T12:07:37;24.72;53.04
67722;SHT31;58309;45.292;11.820;2023-04-29T12:10:08;25.14;51.28
67722;SHT31;58309;45.292;11.820;2023-04-29T12:12:34;25.28;52.53
67722;SHT31;58309;45.292;11.820;2023-04-29T12:15:02;25.11;51.67
67722;SHT31;58309;45.292;11.820;2023-04-29T12:17:29;24.79;51.14
67722;SHT31;58309;45.292;11.820;2023-04-29T12:19:55;24.15;54.61
67722;SHT31;58309;45.292;11.820;2023-04-29T12:22:21;23.95;54.33
67722;SHT31;58309;45.292;11.820;2023-04-29T12:24:46;23.67;56.86
67722;SHT31;58309;45.292;11.820;2023-04-29T12:27:17;23.43;57.02
67722;SHT31;58309;45.292;11.820;2023-04-29T12:29:45;23.07;56.82
67722;SHT31;58309;45.292;11.820;2023-04-29T12:32:31;22.66;57.12
67722;SHT31;58309;45.292;11.820;2023-04-29T12:34:57;22.66;60.45
67722;SHT31;58309;45.292;11.820;2023-04-29T12:37:25;22.72;58.60
67722;SHT31;58309;45.292;11.820;2023-04-29T12:39:54;22.71;58.82
67722;SHT31;58309;45.292;11.820;2023-04-29T12:42:19;22.68;57.62
67722;SHT31;58309;45.292;11.820;2023-04-29T12:44:48;22.51;57.69
67722;SHT31;58309;45.292;11.820;2023-04-29T12:47:14;22.07;56.19
67722;SHT31;58309;45.292;11.820;2023-04-29T12:49:43;21.39;60.62
67722;SHT31;58309;45.292;11.820;2023-04-29T12:52:13;21.82;59.95
67722;SHT31;58309;45.292;11.820;2023-04-29T12:54:39;22.07;59.45
67722;SHT31;58309;45.292;11.820;2023-04-29T12:57:11;22.24;57.92
67722;SHT31;58309;45.292;11.820;2023-04-29T12:59:37;21.47;60.59
67722;SHT31;58309;45.292;11.820;2023-04-29T13:02:04;22.18;61.21
67722;SHT31;58309;45.292;11.820;2023-04-29T13:04:29;22.35;59.01
67722;SHT31;58309;45.292;11.820;2023-04-29T13:06:55;22.41;58.71
67722;SHT31;58309;45.292;11.820;2023-04-29T13:09:29;22.37;58.27
67722;SHT31;58309;45.292;11.820;2023-04-29T13:11:55;22.31;60.30
67722;SHT31;58309;45.292;11.820;2023-04-29T13:14:21;22.33;58.15
67722;SHT31;58309;45.292;11.820;2023-04-29T13:16:46;22.34;57.73
67722;SHT31;58309;45.292;11.820;2023-04-29T13:19:12;22.30;58.26
67722;SHT31;58309;45.292;11.820;2023-04-29T13:21:38;22.31;58.89
67722;SHT31;58309;45.292;11.820;2023-04-29T13:24:04;22.45;58.73
67722;SHT31;58309;45.292;11.820;2023-04-29T13:26:29;22.65;56.87
67722;SHT31;58309;45.292;11.820;2023-04-29T13:28:55;22.44;57.84
67722;SHT31;58309;45.292;11.820;2023-04-29T13:31:20;22.54;58.61
67722;SHT31;58309;45.292;11.820;2023-04-29T13:33:46;22.48;58.79
67722;SHT31;58309;45.292;11.820;2023-04-29T13:36:13;22.79;58.08
67722;SHT31;58309;45.292;11.820;2023-04-29T13:38:39;22.81;56.87
67722;SHT31;58309;45.292;11.820;2023-04-29T13:41:04;22.85;56.87
67722;SHT31;58309;45.292;11.820;2023-04-29T13:43:30;22.82;57.59
67722;SHT31;58309;45.292;11.820;2023-04-29T13:45:56;22.88;56.46
67722;SHT31;58309;45.292;11.820;2023-04-29T13:48:21;22.88;55.66
67722;SHT31;58309;45.292;11.820;2023-04-29T13:50:47;22.77;55.44
67722;SHT31;58309;45.292;11.820;2023-04-29T13:53:13;22.45;57.93
67722;SHT31;58309;45.292;11.820;2023-04-29T13:55:41;22.49;60.69
67722;SHT31;58309;45.292;11.820;2023-04-29T13:58:06;22.59;60.23
67722;SHT31;58309;45.292;11.820;2023-04-29T14:00:32;22.49;61.17
67722;SHT31;58309;45.292;11.820;2023-04-29T14:02:58;22.61;60.14
67722;SHT31;58309;45.292;11.820;2023-04-29T14:05:23;22.58;59.06
67722;SHT31;58309;45.292;11.820;2023-04-29T14:07:49;22.59;60.49
67722;SHT31;58309;45.292;11.820;2023-04-29T14:10:16;22.44;58.03
67722;SHT31;58309;45.292;11.820;2023-04-29T14:12:41;22.52;60.18
67722;SHT31;58309;45.292;11.820;2023-04-29T14:15:07;22.71;59.43
67722;SHT31;58309;45.292;11.820;2023-04-29T14:17:32;22.83;57.66
67722;SHT31;58309;45.292;11.820;2023-04-29T14:19:58;22.75;59.35
67722;SHT31;58309;45.292;11.820;2023-04-29T14:22:24;22.81;58.75
67722;SHT31;58309;45.292;11.820;2023-04-29T14:24:51;22.89;59.66
67722;SHT31;58309;45.292;11.820;2023-04-29T14:27:16;22.81;58.99
67722;SHT31;58309;45.292;11.820;2023-04-29T14:29:42;22.99;59.86
67722;SHT31;58309;45.292;11.820;2023-04-29T14:32:07;23.00;58.32
67722;SHT31;58309;45.292;11.820;2023-04-29T14:34:33;22.91;57.21
67722;SHT31;58309;45.292;11.820;2023-04-29T14:36:59;22.79;57.62
67722;SHT31;58309;45.292;11.820;2023-04-29T14:39:25;22.72;58.84
67722;SHT31;58309;45.292;11.820;2023-04-29T14:41:51;22.69;59.81
67722;SHT31;58309;45.292;11.820;2023-04-29T14:44:17;22.61;58.31
67722;SHT31;58309;45.292;11.820;2023-04-29T14:46:42;22.54;60.60
67722;SHT31;58309;45.292;11.820;2023-04-29T14:49:08;22.66;60.26
67722;SHT31;58309;45.292;11.820;2023-04-29T14:51:33;22.73;59.10
67722;SHT31;58309;45.292;11.820;2023-04-29T14:53:59;22.66;57.41
67722;SHT31;58309;45.292;11.820;2023-04-29T14:56:24;22.30;59.22
67722;SHT31;58309;45.292;11.820;2023-04-29T14:58:50;22.42;61.38
67722;SHT31;58309;45.292;11.820;2023-04-29T15:01:16;22.42;60.75
67722;SHT31;58309;45.292;11.820;2023-04-29T15:03:41;22.52;60.79
67722;SHT31;58309;45.292;11.820;2023-04-29T15:06:07;22.40;61.21
67722;SHT31;58309;45.292;11.820;2023-04-29T15:08:32;22.24;61.92
67722;SHT31;58309;45.292;11.820;2023-04-29T15:10:58;22.10;62.81
67722;SHT31;58309;45.292;11.820;2023-04-29T15:13:23;21.97;61.91
67722;SHT31;58309;45.292;11.820;2023-04-29T15:15:49;22.00;62.95
67722;SHT31;58309;45.292;11.820;2023-04-29T15:18:15;21.96;62.21
67722;SHT31;58309;45.292;11.820;2023-04-29T15:20:43;21.79;62.67
67722;SHT31;58309;45.292;11.820;2023-04-29T15:23:08;21.84;65.14
67722;SHT31;58309;45.292;11.820;2023-04-29T15:25:34;21.87;62.95
67722;SHT31;58309;45.292;11.820;2023-04-29T15:28:00;21.83;62.61
67722;SHT31;58309;45.292;11.820;2023-04-29T15:30:26;21.72;63.08
67722;SHT31;58309;45.292;11.820;2023-04-29T15:32:53;21.74;63.04
67722;SHT31;58309;45.292;11.820;2023-04-29T15:35:18;21.86;62.99
67722;SHT31;58309;45.292;11.820;2023-04-29T15:37:44;21.87;63.18
67722;SHT31;58309;45.292;11.820;2023-04-29T15:40:10;21.80;63.20
67722;SHT31;58309;45.292;11.820;2023-04-29T15:42:36;21.86;64.70
67722;SHT31;58309;45.292;11.820;2023-04-29T15:45:01;21.86;63.79